createdAt,value
2023-03-17T00:00:23.554Z,1004.83
2023-03-17T00:01:23.554Z,1004.84
2023-03-17T00:02:23.589Z,1004.87
2023-03-17T00:03:23.644Z,1004.87
2023-03-17T00:04:23.544Z,1004.89
2023-03-17T00:05:23.531Z,1004.90
2023-03-17T00:06:23.524Z,1004.89
2023-03-17T00:07:23.524Z,1004.95
2023-03-17T00:08:23.517Z,1004.92
2023-03-17T00:09:23.537Z,1004.90
2023-03-17T00:10:23.509Z,1004.90
2023-03-17T00:11:23.503Z,1004.98
2023-03-17T00:12:23.501Z,1005.06
2023-03-17T00:13:23.491Z,1005.07
2023-03-17T00:14:23.487Z,1005.13
2023-03-17T00:15:23.482Z,1005.14
2023-03-17T00:16:23.493Z,1005.14
2023-03-17T00:17:23.473Z,1005.21
2023-03-17T00:18:23.467Z,1005.23
2023-03-17T00:19:23.462Z,1005.20
2023-03-17T00:20:23.456Z,1005.23
2023-03-17T00:21:23.462Z,1005.24
2023-03-17T00:22:23.447Z,1005.21
2023-03-17T00:23:23.445Z,1005.25
2023-03-17T00:24:23.436Z,1005.23
2023-03-17T00:25:23.470Z,1005.26
2023-03-17T00:26:23.438Z,1005.25
2023-03-17T00:27:23.424Z,1005.29
2023-03-17T00:28:23.422Z,1005.27
2023-03-17T00:29:23.417Z,1005.32
2023-03-17T00:30:23.427Z,1005.33
2023-03-17T00:31:23.570Z,1005.44
2023-03-17T00:32:23.398Z,1005.38
2023-03-17T00:33:23.399Z,1005.46
2023-03-17T00:34:23.472Z,1005.50
2023-03-17T00:35:23.393Z,1005.53
2023-03-17T00:36:23.379Z,1005.55
2023-03-17T00:37:23.380Z,1005.56
2023-03-17T00:38:23.370Z,1005.48
2023-03-17T00:39:23.366Z,1005.49
2023-03-17T00:40:23.359Z,1005.45
2023-03-17T00:41:23.378Z,1005.44
2023-03-17T00:42:23.351Z,1005.44
2023-03-17T00:43:23.356Z,1005.43
2023-03-17T00:44:23.336Z,1005.45
2023-03-17T00:45:23.334Z,1005.45
2023-03-17T00:46:23.383Z,1005.45
2023-03-17T00:47:23.324Z,1005.52
2023-03-17T00:48:23.323Z,1005.45
2023-03-17T00:49:23.317Z,1005.46
2023-03-17T00:50:23.306Z,1005.36
2023-03-17T00:51:23.360Z,1005.33
2023-03-17T00:52:23.305Z,1005.28
2023-03-17T00:53:23.296Z,1005.26
2023-03-17T00:54:23.296Z,1005.23
2023-03-17T00:55:23.286Z,1005.19
2023-03-17T00:56:23.283Z,1005.20
2023-03-17T00:57:23.300Z,1005.16
2023-03-17T00:58:23.268Z,1005.15
2023-03-17T00:59:23.267Z,1005.18
2023-03-17T01:00:23.265Z,1005.20
2023-03-17T01:01:23.291Z,1005.17
2023-03-17T01:02:23.292Z,1005.17
2023-03-17T01:03:23.245Z,1005.16
2023-03-17T01:04:23.253Z,1005.19
2023-03-17T01:05:23.250Z,1005.25
2023-03-17T01:06:23.230Z,1005.19
2023-03-17T01:07:23.224Z,1005.26
2023-03-17T01:08:23.220Z,1005.28
2023-03-17T01:09:23.219Z,1005.30
2023-03-17T01:10:23.212Z,1005.36
2023-03-17T01:11:23.213Z,1005.31
2023-03-17T01:12:23.201Z,1005.31
2023-03-17T01:13:23.215Z,1005.35
2023-03-17T01:14:23.199Z,1005.32
2023-03-17T01:15:23.189Z,1005.26
2023-03-17T01:16:23.204Z,1005.20
2023-03-17T01:17:23.194Z,1005.12
2023-03-17T01:18:23.319Z,1005.10
2023-03-17T01:19:23.176Z,1005.17
2023-03-17T01:20:23.161Z,1005.22
2023-03-17T01:21:23.160Z,1005.24
2023-03-17T01:22:23.152Z,1005.16
2023-03-17T01:23:23.181Z,1005.05
2023-03-17T01:24:23.141Z,1005.05
2023-03-17T01:25:23.150Z,1004.94
2023-03-17T01:26:25.716Z,1004.95
2023-03-17T01:27:23.132Z,1004.94
2023-03-17T01:28:23.338Z,1004.95
2023-03-17T01:29:23.143Z,1004.95
2023-03-17T01:30:23.114Z,1004.93
2023-03-17T01:31:23.175Z,1004.87
2023-03-17T01:32:23.121Z,1004.86
2023-03-17T01:33:23.105Z,1004.78
2023-03-17T01:34:23.104Z,1004.71
2023-03-17T01:35:23.096Z,1004.68
2023-03-17T01:36:23.084Z,1004.66
2023-03-17T01:37:23.082Z,1004.66
2023-03-17T01:38:23.086Z,1004.61
2023-03-17T01:39:23.076Z,1004.52
2023-03-17T01:40:23.065Z,1004.45
2023-03-17T01:41:23.062Z,1004.45
2023-03-17T01:42:23.060Z,1004.36
2023-03-17T01:43:23.065Z,1004.29
2023-03-17T01:44:23.048Z,1004.29
2023-03-17T01:45:23.063Z,1004.29
2023-03-17T01:46:23.061Z,1004.25
2023-03-17T01:47:23.035Z,1004.18
2023-03-17T01:48:23.034Z,1004.19
2023-03-17T01:49:23.028Z,1004.26
2023-03-17T01:50:23.017Z,1004.20
2023-03-17T01:51:23.013Z,1004.20
2023-03-17T01:52:23.020Z,1004.19
2023-03-17T01:53:23.004Z,1004.18
2023-03-17T01:54:23.004Z,1004.12
2023-03-17T01:55:22.997Z,1004.15
2023-03-17T01:56:22.991Z,1004.09
2023-03-17T01:57:22.985Z,1004.07
2023-03-17T01:58:22.983Z,1004.13
2023-03-17T01:59:22.973Z,1004.11
2023-03-17T02:00:22.969Z,1004.08
2023-03-17T02:01:23.178Z,1004.13
2023-03-17T02:02:22.958Z,1004.11
2023-03-17T02:03:22.969Z,1004.12
2023-03-17T02:04:23.028Z,1004.12
2023-03-17T02:05:22.950Z,1004.14
2023-03-17T02:06:22.941Z,1004.17
2023-03-17T02:07:22.952Z,1004.13
2023-03-17T02:08:22.935Z,1004.10
2023-03-17T02:09:22.928Z,1004.18
2023-03-17T02:10:22.920Z,1004.10
2023-03-17T02:11:22.924Z,1004.19
2023-03-17T02:12:22.911Z,1004.11
2023-03-17T02:13:22.905Z,1004.09
2023-03-17T02:14:22.900Z,1004.10
2023-03-17T02:15:22.896Z,1004.11
2023-03-17T02:16:22.946Z,1004.10
2023-03-17T02:17:22.967Z,1004.05
2023-03-17T02:18:22.880Z,1004.09
2023-03-17T02:19:22.879Z,1004.13
2023-03-17T02:20:22.869Z,1004.14
2023-03-17T02:21:22.869Z,1004.13
2023-03-17T02:22:22.859Z,1004.12
2023-03-17T02:23:22.891Z,1004.13
2023-03-17T02:24:22.849Z,1004.10
2023-03-17T02:25:22.843Z,1004.05
2023-03-17T02:26:23.090Z,1004.05
2023-03-17T02:27:22.837Z,1004.05
2023-03-17T02:28:22.832Z,1004.00
2023-03-17T02:29:22.833Z,1004.06
2023-03-17T02:30:22.819Z,1004.02
2023-03-17T02:31:22.828Z,1004.02
2023-03-17T02:32:22.825Z,1004.07
2023-03-17T02:33:22.827Z,1004.07
2023-03-17T02:34:22.800Z,1004.05
2023-03-17T02:35:22.795Z,1004.14
2023-03-17T02:36:22.851Z,1004.13
2023-03-17T02:37:22.791Z,1004.20
2023-03-17T02:38:22.789Z,1004.22
2023-03-17T02:39:22.778Z,1004.22
2023-03-17T02:40:22.773Z,1004.22
2023-03-17T02:41:22.768Z,1004.30
2023-03-17T02:42:22.764Z,1004.27
2023-03-17T02:43:22.757Z,1004.30
2023-03-17T02:44:22.758Z,1004.35
2023-03-17T02:45:22.750Z,1004.32
2023-03-17T02:46:22.845Z,1004.35
2023-03-17T02:47:22.740Z,1004.35
2023-03-17T02:48:22.738Z,1004.36
2023-03-17T02:49:22.753Z,1004.41
2023-03-17T02:50:22.728Z,1004.40
2023-03-17T02:51:22.722Z,1004.44
2023-03-17T02:52:22.718Z,1004.38
2023-03-17T02:53:22.718Z,1004.34
2023-03-17T02:54:22.710Z,1004.31
2023-03-17T02:55:22.717Z,1004.27
2023-03-17T02:56:22.698Z,1004.28
2023-03-17T02:57:22.700Z,1004.21
2023-03-17T02:58:22.688Z,1004.19
2023-03-17T02:59:22.690Z,1004.15
2023-03-17T03:00:22.690Z,1004.14
2023-03-17T03:01:22.709Z,1004.07
2023-03-17T03:02:22.723Z,1004.07
2023-03-17T03:03:22.665Z,1004.03
2023-03-17T03:04:22.663Z,1004.03
2023-03-17T03:05:22.678Z,1004.01
2023-03-17T03:06:22.651Z,1004.03
2023-03-17T03:07:22.650Z,1003.99
2023-03-17T03:08:22.641Z,1004.03
2023-03-17T03:09:22.634Z,1004.09
2023-03-17T03:10:22.631Z,1004.04
2023-03-17T03:11:22.625Z,1004.09
2023-03-17T03:12:22.620Z,1004.07
2023-03-17T03:13:22.617Z,1004.06
2023-03-17T03:14:22.618Z,1004.09
2023-03-17T03:15:22.618Z,1004.10
2023-03-17T03:16:22.611Z,1004.15
2023-03-17T03:17:22.597Z,1004.15
2023-03-17T03:18:22.595Z,1004.16
2023-03-17T03:19:22.585Z,1004.17
2023-03-17T03:20:22.591Z,1004.12
2023-03-17T03:21:22.609Z,1004.13
2023-03-17T03:22:22.583Z,1004.12
2023-03-17T03:23:22.593Z,1004.12
2023-03-17T03:24:22.568Z,1004.12
2023-03-17T03:25:22.557Z,1004.11
2023-03-17T03:26:22.555Z,1004.08
2023-03-17T03:27:22.544Z,1004.09
2023-03-17T03:28:22.543Z,1004.06
2023-03-17T03:29:22.539Z,1004.00
2023-03-17T03:30:22.542Z,1004.02
2023-03-17T03:31:22.615Z,1003.96
2023-03-17T03:32:22.523Z,1003.98
2023-03-17T03:33:22.537Z,1003.97
2023-03-17T03:34:22.515Z,1003.94
2023-03-17T03:35:22.507Z,1003.94
2023-03-17T03:36:22.523Z,1003.91
2023-03-17T03:37:22.535Z,1003.87
2023-03-17T03:38:22.499Z,1003.81
2023-03-17T03:39:22.490Z,1003.86
2023-03-17T03:40:22.484Z,1003.86
2023-03-17T03:41:22.493Z,1003.84
2023-03-17T03:42:22.474Z,1003.80
2023-03-17T03:43:23.897Z,1003.81
2023-03-17T03:44:22.468Z,1003.81
2023-03-17T03:45:22.465Z,1003.87
2023-03-17T03:46:22.457Z,1003.89
2023-03-17T03:47:22.443Z,1003.87
2023-03-17T03:48:22.445Z,1003.83
2023-03-17T03:49:22.435Z,1003.80
2023-03-17T03:50:22.436Z,1003.79
2023-03-17T03:51:22.429Z,1003.77
2023-03-17T03:52:22.426Z,1003.82
2023-03-17T03:53:22.438Z,1003.77
2023-03-17T03:54:22.426Z,1003.82
2023-03-17T03:55:22.403Z,1003.86
2023-03-17T03:56:22.399Z,1003.91
2023-03-17T03:57:22.393Z,1003.94
2023-03-17T03:58:22.392Z,1003.96
2023-03-17T03:59:22.390Z,1003.92
2023-03-17T04:00:22.381Z,1004.02
2023-03-17T04:01:22.373Z,1004.08
2023-03-17T04:02:22.462Z,1004.08
2023-03-17T04:03:22.376Z,1004.11
2023-03-17T04:04:22.397Z,1004.13
2023-03-17T04:05:22.358Z,1004.13
2023-03-17T04:06:22.350Z,1004.10
2023-03-17T04:07:22.350Z,1004.09
2023-03-17T04:08:22.344Z,1004.10
2023-03-17T04:09:22.362Z,1004.13
2023-03-17T04:10:22.330Z,1004.09
2023-03-17T04:11:22.324Z,1004.10
2023-03-17T04:12:22.328Z,1004.13
2023-03-17T04:13:22.329Z,1004.14
2023-03-17T04:14:22.311Z,1004.13
2023-03-17T04:15:22.298Z,1004.15
2023-03-17T04:16:22.343Z,1004.17
2023-03-17T04:17:22.298Z,1004.15
2023-03-17T04:18:22.295Z,1004.14
2023-03-17T04:19:22.396Z,1004.12
2023-03-17T04:20:22.284Z,1004.19
2023-03-17T04:21:22.298Z,1004.19
2023-03-17T04:22:22.266Z,1004.16
2023-03-17T04:23:22.263Z,1004.11
2023-03-17T04:24:22.276Z,1004.11
2023-03-17T04:25:22.275Z,1004.08
2023-03-17T04:26:22.249Z,1004.12
2023-03-17T04:27:22.239Z,1004.10
2023-03-17T04:28:22.238Z,1004.14
2023-03-17T04:29:22.230Z,1004.10
2023-03-17T04:30:22.224Z,1004.08
2023-03-17T04:31:22.621Z,1004.11
2023-03-17T04:32:22.221Z,1004.07
2023-03-17T04:33:22.212Z,1004.11
2023-03-17T04:34:22.208Z,1004.14
2023-03-17T04:35:22.199Z,1004.12
2023-03-17T04:36:22.198Z,1004.15
2023-03-17T04:37:22.192Z,1004.15
2023-03-17T04:38:22.190Z,1004.11
2023-03-17T04:39:22.181Z,1004.10
2023-03-17T04:40:22.181Z,1004.12
2023-03-17T04:41:22.213Z,1004.07
2023-03-17T04:42:22.173Z,1004.12
2023-03-17T04:43:22.161Z,1004.11
2023-03-17T04:44:22.157Z,1004.11
2023-03-17T04:45:22.154Z,1004.11
2023-03-17T04:46:22.147Z,1004.07
2023-03-17T04:47:22.141Z,1004.14
2023-03-17T04:48:22.142Z,1004.13
2023-03-17T04:49:22.133Z,1004.08
2023-03-17T04:50:22.133Z,1004.09
2023-03-17T04:51:22.130Z,1004.08
2023-03-17T04:52:22.120Z,1004.06
2023-03-17T04:53:22.116Z,1004.04
2023-03-17T04:54:22.108Z,1004.07
2023-03-17T04:55:22.104Z,1004.09
2023-03-17T04:56:22.105Z,1004.05
2023-03-17T04:57:22.118Z,1004.05
2023-03-17T04:58:30.484Z,1004.01
2023-03-17T04:59:22.083Z,1003.97
2023-03-17T05:00:22.085Z,1003.95
2023-03-17T05:01:22.144Z,1003.93
2023-03-17T05:02:22.156Z,1003.96
2023-03-17T05:03:27.287Z,1004.02
2023-03-17T05:04:31.315Z,1004.05
2023-03-17T05:05:22.056Z,1004.08
2023-03-17T05:06:22.051Z,1004.13
2023-03-17T05:07:22.041Z,1004.09
2023-03-17T05:08:22.043Z,1004.08
2023-03-17T05:09:22.032Z,1004.10
2023-03-17T05:10:22.030Z,1004.09
2023-03-17T05:11:22.029Z,1004.18
2023-03-17T05:12:22.025Z,1004.19
2023-03-17T05:13:22.116Z,1004.17
2023-03-17T05:14:22.022Z,1004.16
2023-03-17T05:15:22.004Z,1004.13
2023-03-17T05:16:22.069Z,1004.06
2023-03-17T05:17:22.018Z,1004.04
2023-03-17T05:18:22.000Z,1003.97
2023-03-17T05:19:21.988Z,1003.95
2023-03-17T05:20:21.981Z,1003.95
2023-03-17T05:21:22.004Z,1003.99
2023-03-17T05:22:21.967Z,1003.96
2023-03-17T05:23:21.966Z,1003.97
2023-03-17T05:24:21.964Z,1004.00
2023-03-17T05:25:21.951Z,1004.06
2023-03-17T05:26:21.949Z,1004.03
2023-03-17T05:27:21.948Z,1004.03
2023-03-17T05:28:21.951Z,1004.05
2023-03-17T05:29:21.952Z,1004.07
2023-03-17T05:30:21.935Z,1004.04
2023-03-17T05:31:21.966Z,1004.03
2023-03-17T05:32:22.322Z,1004.12
2023-03-17T05:33:21.943Z,1004.13
2023-03-17T05:34:21.913Z,1004.13
2023-03-17T05:35:21.909Z,1004.15
2023-03-17T05:36:21.902Z,1004.17
2023-03-17T05:37:21.893Z,1004.18
2023-03-17T05:38:21.892Z,1004.21
2023-03-17T05:39:21.887Z,1004.22
2023-03-17T05:40:23.780Z,1004.19
2023-03-17T05:41:21.884Z,1004.23
2023-03-17T05:42:21.876Z,1004.21
2023-03-17T05:43:21.891Z,1004.18
2023-03-17T05:44:21.870Z,1004.18
2023-03-17T05:45:21.876Z,1004.13
2023-03-17T05:46:21.904Z,1004.13
2023-03-17T05:47:21.845Z,1004.12
2023-03-17T05:48:21.840Z,1004.14
2023-03-17T05:49:21.834Z,1004.15
2023-03-17T05:50:21.844Z,1004.14
2023-03-17T05:51:21.824Z,1004.10
2023-03-17T05:52:21.819Z,1004.06
2023-03-17T05:53:21.816Z,1004.06
2023-03-17T05:54:21.809Z,1004.11
2023-03-17T05:55:21.803Z,1004.15
2023-03-17T05:56:21.803Z,1004.11
2023-03-17T05:57:21.795Z,1004.12
2023-03-17T05:58:21.795Z,1004.12
2023-03-17T05:59:21.787Z,1004.08
2023-03-17T06:00:21.797Z,1004.07
2023-03-17T06:01:21.794Z,1004.04
2023-03-17T06:02:21.813Z,1004.10
2023-03-17T06:03:21.781Z,1004.07
2023-03-17T06:04:21.764Z,1004.13
2023-03-17T06:05:21.757Z,1004.10
2023-03-17T06:06:21.755Z,1004.11
2023-03-17T06:07:21.748Z,1004.07
2023-03-17T06:08:21.761Z,1004.05
2023-03-17T06:09:21.742Z,1004.02
2023-03-17T06:10:21.736Z,1004.06
2023-03-17T06:11:21.723Z,1004.06
2023-03-17T06:12:21.723Z,1004.04
2023-03-17T06:13:21.718Z,1004.07
2023-03-17T06:14:21.713Z,1004.04
2023-03-17T06:15:21.714Z,1004.05
2023-03-17T06:16:21.812Z,1004.09
2023-03-17T06:17:21.721Z,1004.05
2023-03-17T06:18:21.694Z,1004.05
2023-03-17T06:19:21.690Z,1004.04
2023-03-17T06:20:21.685Z,1004.04
2023-03-17T06:21:21.687Z,1004.07
2023-03-17T06:22:21.687Z,1004.06
2023-03-17T06:23:21.682Z,1004.01
2023-03-17T06:24:21.668Z,1004.04
2023-03-17T06:25:21.668Z,1003.98
2023-03-17T06:26:21.654Z,1003.99
2023-03-17T06:27:21.654Z,1004.03
2023-03-17T06:28:21.646Z,1004.04
2023-03-17T06:29:21.647Z,1004.06
2023-03-17T06:30:21.638Z,1004.05
2023-03-17T06:31:21.683Z,1004.04
2023-03-17T06:32:21.626Z,1004.03
2023-03-17T06:33:21.640Z,1004.02
2023-03-17T06:34:21.616Z,1004.01
2023-03-17T06:35:21.654Z,1003.98
2023-03-17T06:36:21.608Z,1004.02
2023-03-17T06:37:21.600Z,1004.03
2023-03-17T06:38:21.594Z,1004.01
2023-03-17T06:39:21.595Z,1004.00
2023-03-17T06:40:21.605Z,1004.03
2023-03-17T06:41:21.581Z,1004.04
2023-03-17T06:42:21.576Z,1003.99
2023-03-17T06:43:21.568Z,1004.01
2023-03-17T06:44:21.568Z,1004.04
2023-03-17T06:45:21.557Z,1004.02
2023-03-17T06:46:21.623Z,1004.00
2023-03-17T06:47:21.754Z,1004.00
2023-03-17T06:48:21.546Z,1003.98
2023-03-17T06:49:21.559Z,1003.98
2023-03-17T06:50:21.532Z,1003.98
2023-03-17T06:51:21.531Z,1003.95
2023-03-17T06:52:21.522Z,1003.95
2023-03-17T06:53:21.526Z,1003.98
2023-03-17T06:54:21.516Z,1003.95
2023-03-17T06:55:21.517Z,1003.93
2023-03-17T06:56:29.832Z,1003.95
2023-03-17T06:57:21.509Z,1003.97
2023-03-17T06:58:21.505Z,1003.94
2023-03-17T06:59:21.498Z,1003.97
2023-03-17T07:00:21.485Z,1003.97
2023-03-17T07:01:21.520Z,1004.01
2023-03-17T07:02:21.477Z,1004.01
2023-03-17T07:03:21.472Z,1004.04
2023-03-17T07:04:21.605Z,1004.03
2023-03-17T07:05:21.485Z,1004.02
2023-03-17T07:06:21.454Z,1004.04
2023-03-17T07:07:21.451Z,1004.03
2023-03-17T07:08:21.447Z,1004.00
2023-03-17T07:09:21.448Z,1004.02
2023-03-17T07:10:21.434Z,1004.02
2023-03-17T07:11:21.439Z,1004.02
2023-03-17T07:12:21.425Z,1004.09
2023-03-17T07:13:21.431Z,1004.04
2023-03-17T07:14:21.415Z,1004.11
2023-03-17T07:15:21.419Z,1004.11
2023-03-17T07:16:21.537Z,1004.14
2023-03-17T07:17:21.413Z,1004.10
2023-03-17T07:18:21.401Z,1004.14
2023-03-17T07:19:21.393Z,1004.15
2023-03-17T07:20:21.406Z,1004.15
2023-03-17T07:21:21.423Z,1004.18
2023-03-17T07:22:21.388Z,1004.20
2023-03-17T07:23:21.384Z,1004.25
2023-03-17T07:24:21.369Z,1004.18
2023-03-17T07:25:21.365Z,1004.15
2023-03-17T07:26:21.372Z,1004.18
2023-03-17T07:27:23.053Z,1004.17
2023-03-17T07:28:21.362Z,1004.15
2023-03-17T07:29:21.379Z,1004.17
2023-03-17T07:30:21.372Z,1004.15
2023-03-17T07:31:21.412Z,1004.06
2023-03-17T07:32:21.351Z,1004.11
2023-03-17T07:33:21.420Z,1004.05
2023-03-17T07:34:21.328Z,1004.01
2023-03-17T07:35:21.367Z,1004.06
2023-03-17T07:36:21.316Z,1004.11
2023-03-17T07:37:21.341Z,1004.08
2023-03-17T07:38:21.308Z,1004.06
2023-03-17T07:39:21.308Z,1004.05
2023-03-17T07:40:21.327Z,1004.03
2023-03-17T07:41:21.347Z,1004.11
2023-03-17T07:42:21.293Z,1004.06
2023-03-17T07:43:21.287Z,1004.08
2023-03-17T07:44:21.276Z,1004.07
2023-03-17T07:45:21.276Z,1004.02
2023-03-17T07:47:21.279Z,1004.05
2023-03-17T07:48:21.293Z,1004.09
2023-03-17T07:49:38.114Z,1004.06
2023-03-17T07:50:21.263Z,1004.05
2023-03-17T07:51:21.249Z,1004.07
2023-03-17T07:52:21.253Z,1004.01
2023-03-17T07:53:21.272Z,1003.95
2023-03-17T07:54:21.274Z,1003.96
2023-03-17T07:55:21.231Z,1003.99
2023-03-17T07:56:21.232Z,1003.99
2023-03-17T07:57:21.291Z,1004.02
2023-03-17T07:58:21.227Z,1004.10
2023-03-17T07:59:21.228Z,1004.12
2023-03-17T08:00:21.234Z,1004.12
2023-03-17T08:01:21.217Z,1004.11
2023-03-17T08:02:21.284Z,1004.13
2023-03-17T08:03:21.246Z,1004.15
2023-03-17T08:04:21.221Z,1004.09
2023-03-17T08:05:21.197Z,1004.06
2023-03-17T08:06:21.191Z,1004.07
2023-03-17T08:07:21.187Z,1004.06
2023-03-17T08:08:21.187Z,1004.06
2023-03-17T08:09:21.234Z,1004.02
2023-03-17T08:10:21.209Z,1004.06
2023-03-17T08:12:21.176Z,1004.06
2023-03-17T08:13:21.178Z,1004.03
2023-03-17T08:14:21.184Z,1004.01
2023-03-17T08:15:21.206Z,1004.03
2023-03-17T08:16:21.215Z,1004.09
2023-03-17T08:17:21.153Z,1004.08
2023-03-17T08:18:21.153Z,1004.03
2023-03-17T08:19:21.153Z,1004.13
2023-03-17T08:20:21.179Z,1004.12
2023-03-17T08:21:21.158Z,1004.13
2023-03-17T08:22:21.151Z,1004.12
2023-03-17T08:23:21.160Z,1004.15
2023-03-17T08:24:21.167Z,1004.24
2023-03-17T08:25:21.142Z,1004.22
2023-03-17T08:26:21.122Z,1004.20
2023-03-17T08:27:21.134Z,1004.24
2023-03-17T08:28:21.115Z,1004.22
2023-03-17T08:29:21.157Z,1004.22
2023-03-17T08:30:21.111Z,1004.17
2023-03-17T08:31:21.267Z,1004.14
2023-03-17T08:32:21.139Z,1004.18
2023-03-17T08:33:21.157Z,1004.19
2023-03-17T08:34:21.090Z,1004.18
2023-03-17T08:35:21.125Z,1004.15
2023-03-17T08:36:21.094Z,1004.19
2023-03-17T08:37:21.082Z,1004.20
2023-03-17T08:38:21.077Z,1004.15
2023-03-17T08:39:21.083Z,1004.15
2023-03-17T08:40:21.085Z,1004.12
2023-03-17T08:41:21.087Z,1004.16
2023-03-17T08:42:21.063Z,1004.17
2023-03-17T08:43:21.053Z,1004.14
2023-03-17T08:44:21.054Z,1004.17
2023-03-17T08:45:21.046Z,1004.19
2023-03-17T08:46:21.219Z,1004.23
2023-03-17T08:47:21.043Z,1004.19
2023-03-17T08:48:21.037Z,1004.18
2023-03-17T08:49:21.038Z,1004.16
2023-03-17T08:50:21.036Z,1004.19
2023-03-17T08:51:24.225Z,1004.18
2023-03-17T08:52:21.020Z,1004.14
2023-03-17T08:53:21.019Z,1004.12
2023-03-17T08:54:21.013Z,1004.10
2023-03-17T08:55:21.013Z,1004.03
2023-03-17T08:56:21.006Z,1004.04
2023-03-17T08:57:21.020Z,1004.00
2023-03-17T08:58:21.011Z,1003.97
2023-03-17T08:59:20.996Z,1003.98
2023-03-17T09:00:20.989Z,1003.96
2023-03-17T09:01:21.095Z,1003.95
2023-03-17T09:02:21.020Z,1003.93
2023-03-17T09:03:20.981Z,1003.89
2023-03-17T09:04:20.976Z,1003.96
2023-03-17T09:05:20.973Z,1003.93
2023-03-17T09:06:20.969Z,1003.92
2023-03-17T09:07:20.968Z,1003.88
2023-03-17T09:08:20.957Z,1003.91
2023-03-17T09:09:20.961Z,1003.94
2023-03-17T09:10:20.958Z,1003.99
2023-03-17T09:11:20.949Z,1004.03
2023-03-17T09:12:20.954Z,1004.00
2023-03-17T09:13:20.963Z,1004.03
2023-03-17T09:14:20.935Z,1003.99
2023-03-17T09:15:20.956Z,1003.97
2023-03-17T09:16:20.986Z,1003.99
2023-03-17T09:17:20.934Z,1004.01
2023-03-17T09:18:22.166Z,1004.04
2023-03-17T09:19:20.930Z,1004.09
2023-03-17T09:20:20.925Z,1004.10
2023-03-17T09:21:20.912Z,1004.06
2023-03-17T09:22:20.916Z,1004.16
2023-03-17T09:23:20.915Z,1004.15
2023-03-17T09:24:20.902Z,1004.15
2023-03-17T09:25:20.900Z,1004.12
2023-03-17T09:26:20.888Z,1004.09
2023-03-17T09:27:20.890Z,1004.09
2023-03-17T09:28:20.883Z,1004.11
2023-03-17T09:29:20.898Z,1004.09
2023-03-17T09:30:20.874Z,1004.04
2023-03-17T09:31:20.896Z,1004.07
2023-03-17T09:32:20.866Z,1004.08
2023-03-17T09:33:20.867Z,1004.08
2023-03-17T09:34:20.860Z,1004.07
2023-03-17T09:35:20.858Z,1004.10
2023-03-17T09:36:20.851Z,1004.00
2023-03-17T09:37:20.878Z,1003.99
2023-03-17T09:38:20.856Z,1003.99
2023-03-17T09:39:20.849Z,1003.95
2023-03-17T09:40:20.843Z,1003.95
2023-03-17T09:41:20.849Z,1003.92
2023-03-17T09:42:20.830Z,1003.91
2023-03-17T09:43:20.829Z,1003.86
2023-03-17T09:44:20.832Z,1003.86
2023-03-17T09:45:20.857Z,1003.82
2023-03-17T09:46:20.899Z,1003.78
2023-03-17T09:47:20.816Z,1003.80
2023-03-17T09:48:20.811Z,1003.78
2023-03-17T09:49:20.810Z,1003.79
2023-03-17T09:50:20.801Z,1003.79
2023-03-17T09:51:20.799Z,1003.76
2023-03-17T09:52:20.797Z,1003.73
2023-03-17T09:53:20.791Z,1003.71
2023-03-17T09:54:20.789Z,1003.75
2023-03-17T09:55:20.785Z,1003.76
2023-03-17T09:56:20.784Z,1003.73
2023-03-17T09:57:20.825Z,1003.73
2023-03-17T09:58:20.772Z,1003.76
2023-03-17T09:59:20.779Z,1003.84
2023-03-17T10:00:20.774Z,1003.83
2023-03-17T10:01:20.906Z,1003.87
2023-03-17T10:02:20.766Z,1003.93
2023-03-17T10:03:20.756Z,1003.96
2023-03-17T10:04:20.750Z,1003.92
2023-03-17T10:05:20.821Z,1003.87
2023-03-17T10:06:20.743Z,1003.87
2023-03-17T10:07:20.746Z,1003.85
2023-03-17T10:08:30.823Z,1003.82
2023-03-17T10:09:20.737Z,1003.85
2023-03-17T10:10:20.730Z,1003.88
2023-03-17T10:11:20.728Z,1003.89
2023-03-17T10:12:20.725Z,1003.93
2023-03-17T10:13:20.731Z,1003.94
2023-03-17T10:14:20.718Z,1003.95
2023-03-17T10:15:20.712Z,1003.93
2023-03-17T10:16:20.882Z,1003.97
2023-03-17T10:17:20.726Z,1003.93
2023-03-17T10:18:20.701Z,1003.98
2023-03-17T10:19:20.702Z,1003.91
2023-03-17T10:20:20.699Z,1003.94
2023-03-17T10:21:20.698Z,1003.87
2023-03-17T10:22:20.693Z,1003.88
2023-03-17T10:23:20.686Z,1003.86
2023-03-17T10:24:20.683Z,1003.83
2023-03-17T10:25:20.686Z,1003.81
2023-03-17T10:26:20.675Z,1003.83
2023-03-17T10:27:20.671Z,1003.76
2023-03-17T10:28:20.672Z,1003.74
2023-03-17T10:29:20.666Z,1003.73
2023-03-17T10:30:20.711Z,1003.72
2023-03-17T10:31:20.717Z,1003.76
2023-03-17T10:32:20.661Z,1003.73
2023-03-17T10:33:20.673Z,1003.68
2023-03-17T10:34:20.647Z,1003.77
2023-03-17T10:35:20.655Z,1003.82
2023-03-17T10:36:20.642Z,1003.77
2023-03-17T10:37:20.642Z,1003.78
2023-03-17T10:38:20.636Z,1003.77
2023-03-17T10:39:20.638Z,1003.82
2023-03-17T10:40:20.698Z,1003.80
2023-03-17T10:41:20.633Z,1003.77
2023-03-17T10:42:20.625Z,1003.80
2023-03-17T10:43:20.723Z,1003.78
2023-03-17T10:44:20.625Z,1003.76
2023-03-17T10:45:20.617Z,1003.78
2023-03-17T10:46:20.628Z,1003.75
2023-03-17T10:47:20.621Z,1003.73
2023-03-17T10:48:20.614Z,1003.76
2023-03-17T10:49:20.621Z,1003.78
2023-03-17T10:50:20.594Z,1003.77
2023-03-17T10:51:20.592Z,1003.71
2023-03-17T10:52:20.597Z,1003.71
2023-03-17T10:53:20.591Z,1003.70
2023-03-17T10:54:20.590Z,1003.72
2023-03-17T10:55:20.595Z,1003.68
2023-03-17T10:56:20.577Z,1003.68
2023-03-17T10:57:20.612Z,1003.64
2023-03-17T10:58:20.575Z,1003.59
2023-03-17T10:59:20.591Z,1003.55
2023-03-17T11:00:20.570Z,1003.60
2023-03-17T11:01:20.676Z,1003.54
2023-03-17T11:02:20.563Z,1003.55
2023-03-17T11:03:20.555Z,1003.52
2023-03-17T11:04:20.698Z,1003.57
2023-03-17T11:05:20.590Z,1003.50
2023-03-17T11:06:20.550Z,1003.52
2023-03-17T11:07:20.548Z,1003.56
2023-03-17T11:08:20.542Z,1003.48
2023-03-17T11:09:20.537Z,1003.46
2023-03-17T11:10:20.537Z,1003.42
2023-03-17T11:11:21.318Z,1003.45
2023-03-17T11:12:20.529Z,1003.42
2023-03-17T11:13:20.531Z,1003.44
2023-03-17T11:14:20.528Z,1003.42
2023-03-17T11:15:20.521Z,1003.43
2023-03-17T11:16:20.568Z,1003.42
2023-03-17T11:17:20.513Z,1003.48
2023-03-17T11:18:20.513Z,1003.49
2023-03-17T11:19:20.507Z,1003.48
2023-03-17T11:20:20.505Z,1003.48
2023-03-17T11:21:20.522Z,1003.44
2023-03-17T11:22:20.502Z,1003.42
2023-03-17T11:23:20.496Z,1003.41
2023-03-17T11:24:20.502Z,1003.42
2023-03-17T11:25:20.494Z,1003.38
2023-03-17T11:26:20.485Z,1003.50
2023-03-17T11:27:20.484Z,1003.48
2023-03-17T11:28:20.483Z,1003.46
2023-03-17T11:29:20.477Z,1003.45
2023-03-17T11:30:20.502Z,1003.46
2023-03-17T11:31:20.503Z,1003.48
2023-03-17T11:32:20.481Z,1003.47
2023-03-17T11:33:20.468Z,1003.40
2023-03-17T11:34:20.460Z,1003.39
2023-03-17T11:35:20.458Z,1003.38
2023-03-17T11:36:20.460Z,1003.40
2023-03-17T11:37:20.475Z,1003.37
2023-03-17T11:38:20.458Z,1003.31
2023-03-17T11:39:20.448Z,1003.32
2023-03-17T11:40:20.448Z,1003.30
2023-03-17T11:41:20.456Z,1003.30
2023-03-17T11:42:20.449Z,1003.27
2023-03-17T11:43:20.441Z,1003.24
2023-03-17T11:44:20.433Z,1003.27
2023-03-17T11:45:20.430Z,1003.21
2023-03-17T11:46:20.494Z,1003.19
2023-03-17T11:47:20.430Z,1003.20
2023-03-17T11:48:20.438Z,1003.22
2023-03-17T11:49:20.446Z,1003.17
2023-03-17T11:50:20.461Z,1003.21
2023-03-17T11:51:20.411Z,1003.16
2023-03-17T11:52:20.418Z,1003.17
2023-03-17T11:53:20.600Z,1003.16
2023-03-17T11:54:20.409Z,1003.11
2023-03-17T11:55:20.404Z,1003.14
2023-03-17T11:56:20.432Z,1003.10
2023-03-17T11:57:20.407Z,1003.08
2023-03-17T11:58:20.400Z,1003.01
2023-03-17T11:59:20.389Z,1003.07
2023-03-17T12:00:20.399Z,1003.05
2023-03-17T12:01:20.385Z,1003.04
2023-03-17T12:02:20.382Z,1003.04
2023-03-17T12:03:20.426Z,1003.06
2023-03-17T12:04:20.436Z,1003.01
2023-03-17T12:05:20.368Z,1003.03
2023-03-17T12:06:20.367Z,1003.03
2023-03-17T12:07:20.360Z,1003.04